Gravesville, Arkansas
Current Conditions -  °F | °C
As of 3:35 AM on Thursday 27 Nov 2014 (Local Time) from KCCA Reporting Station
Clear Clear  
Wind Chill: 29°   Ceiling: Unl
Heat Index: 36°   Visibility: 10mi
Dew Point: 25°   Wind: 8mph
Humidity: 65%   Direction: 330°NNW
Pressure: 30.4"   Gusts: 18mph
Location:  35.3032°N, 92.4407°W
Report Text: KCCA 270935Z AUTO 33007G16KT 10SM CLR 02/M04 A3040 RMK AO2
Loading
Personal Weather Stations






























Interactive Weather Map New forecast layout! Learn more

10-Day Weather Forecast

Advertisements
Track Severe Weather on mobile